Time;durP1;ratioP1;P1;durP2;ratioP2;P2;SDS_P1;SDS_P2;PMS_P1;PMS_P2;Temp;Humidity;BMP_temperature;BMP_pressure;BME280_temperature;BME280_humidity;BME280_pressure;Samples;Min_cycle;Max_cycle;Signal;HPM_P1;HPM_P2
2023/04/26 00:02:14;;;;;;;7.47;2.22;;;5.70;99.90;;;;;;5091946;27;20118;-77
2023/04/26 00:04:40;;;;;;;8.15;2.53;;;5.90;99.90;;;;;;5091636;28;20391;-76
2023/04/26 00:07:06;;;;;;;6.00;2.20;;;5.80;99.90;;;;;;5070647;28;20088;-75
2023/04/26 00:09:32;;;;;;;6.95;2.42;;;5.70;99.90;;;;;;5097328;27;20089;-75
2023/04/26 00:11:59;;;;;;;8.10;2.50;;;5.70;99.90;;;;;;5106320;28;20039;-76
2023/04/26 00:14:24;;;;;;;6.30;3.20;;;5.70;99.90;;;;;;5092453;28;20126;-77
2023/04/26 00:16:50;;;;;;;6.07;2.67;;;5.40;99.90;;;;;;5068673;28;20114;-78
2023/04/26 00:19:20;;;;;;;6.90;2.42;;;5.50;99.90;;;;;;5083303;28;20040;-77
2023/04/26 00:21:46;;;;;;;8.45;2.80;;;5.50;99.90;;;;;;5074416;28;20404;-77
2023/04/26 00:24:11;;;;;;;8.02;2.88;;;5.50;99.90;;;;;;5092146;28;20046;-80
2023/04/26 00:26:37;;;;;;;8.82;2.97;;;5.60;99.90;;;;;;5091390;28;20034;-76
2023/04/26 00:29:06;;;;;;;6.95;2.30;;;5.30;99.90;;;;;;5055443;28;20040;-74
2023/04/26 00:31:31;;;;;;;5.97;2.45;;;5.40;99.90;;;;;;5070336;28;20035;-78
2023/04/26 00:33:57;;;;;;;6.72;2.25;;;5.40;99.90;;;;;;5082140;27;20036;-76
2023/04/26 00:36:23;;;;;;;7.15;2.17;;;5.40;99.90;;;;;;5084582;28;20040;-77
2023/04/26 00:38:48;;;;;;;6.35;2.33;;;5.70;99.90;;;;;;5073549;28;20039;-73
2023/04/26 00:41:14;;;;;;;7.85;2.65;;;5.70;99.90;;;;;;5091195;28;20066;-71
2023/04/26 00:43:40;;;;;;;5.82;2.50;;;5.20;99.90;;;;;;5092562;28;20039;-72
2023/04/26 00:46:07;;;;;;;5.03;2.35;;;5.70;99.90;;;;;;5089652;28;20079;-73
2023/04/26 00:48:35;;;;;;;5.50;2.20;;;5.30;99.90;;;;;;5090152;28;20438;-76
2023/04/26 00:51:01;;;;;;;9.05;2.35;;;5.30;99.90;;;;;;5090200;28;20451;-75
2023/04/26 00:53:27;;;;;;;5.90;2.05;;;5.10;99.90;;;;;;5091573;28;20079;-74
2023/04/26 00:55:53;;;;;;;5.43;2.35;;;5.60;99.90;;;;;;5066408;28;20036;-79
2023/04/26 00:58:19;;;;;;;8.60;2.40;;;5.10;99.90;;;;;;5089751;28;20044;-75
2023/04/26 01:00:45;;;;;;;8.50;2.28;;;5.20;99.90;;;;;;5090359;28;20043;-76
2023/04/26 01:03:11;;;;;;;4.45;2.28;;;5.30;99.90;;;;;;5104078;28;20070;-75
2023/04/26 01:05:37;;;;;;;8.23;2.30;;;5.40;99.90;;;;;;5083639;28;20147;-75
2023/04/26 01:08:03;;;;;;;5.25;2.33;;;5.50;99.90;;;;;;5088708;28;20039;-75
2023/04/26 01:10:31;;;;;;;6.10;2.10;;;5.30;99.90;;;;;;5071768;28;20108;-74
2023/04/26 01:12:57;;;;;;;5.07;2.35;;;5.30;99.90;;;;;;5096496;28;20071;-75
2023/04/26 01:15:26;;;;;;;5.63;2.00;;;5.10;99.90;;;;;;5087607;28;20041;-77
2023/04/26 01:17:52;;;;;;;6.13;2.28;;;5.30;99.90;;;;;;5054647;28;20395;-77
2023/04/26 01:20:18;;;;;;;4.00;2.40;;;5.00;99.90;;;;;;5122296;27;20035;-76
2023/04/26 01:22:44;;;;;;;4.22;2.22;;;5.00;99.90;;;;;;5089795;28;20047;-76
2023/04/26 01:25:11;;;;;;;7.90;2.33;;;5.10;99.90;;;;;;5106090;28;20047;-77
2023/04/26 01:27:37;;;;;;;4.40;2.20;;;5.20;99.90;;;;;;5088997;28;20071;-78
2023/04/26 01:30:03;;;;;;;5.40;2.47;;;5.40;99.90;;;;;;5087551;28;20047;-74
2023/04/26 01:32:29;;;;;;;8.00;2.65;;;5.50;99.90;;;;;;5072773;28;20115;-74
2023/04/26 01:34:55;;;;;;;8.63;2.95;;;5.00;99.90;;;;;;5073514;28;20127;-76
2023/04/26 01:37:21;;;;;;;6.35;2.75;;;5.70;99.90;;;;;;5091901;28;20054;-74
2023/04/26 01:39:47;;;;;;;8.55;3.30;;;5.70;99.90;;;;;;5090483;28;20135;-76
2023/04/26 01:42:12;;;;;;;7.32;3.10;;;5.40;99.90;;;;;;5090698;28;20040;-76
2023/04/26 01:44:38;;;;;;;4.38;2.40;;;5.40;99.90;;;;;;5089813;28;20027;-75
2023/04/26 01:47:05;;;;;;;8.38;2.70;;;5.40;99.90;;;;;;5102001;28;20046;-75
2023/04/26 01:49:31;;;;;;;7.90;2.97;;;5.50;99.90;;;;;;5107809;28;20400;-77
2023/04/26 01:51:58;;;;;;;6.45;2.80;;;5.90;99.90;;;;;;5098595;28;20134;-74
2023/04/26 01:54:23;;;;;;;9.18;2.70;;;5.60;99.90;;;;;;5071258;28;20028;-78
2023/04/26 01:56:49;;;;;;;6.70;3.10;;;5.90;99.90;;;;;;5071664;28;20101;-76
2023/04/26 01:59:15;;;;;;;4.65;2.58;;;5.40;99.90;;;;;;5090888;28;20042;-75
2023/04/26 02:01:45;;;;;;;7.70;2.63;;;6.70;99.90;;;;;;5088285;28;20039;-75
2023/04/26 02:04:10;;;;;;;5.65;2.50;;;5.40;99.90;;;;;;5074001;28;20126;-75
2023/04/26 02:06:45;;;;;;;5.65;2.45;;;5.70;99.90;;;;;;5097361;28;20130;-76
2023/04/26 02:09:11;;;;;;;;;;;7.00;99.90;;;;;;5054501;28;20457;-74
2023/04/26 02:11:36;;;;;;;9.13;3.22;;;5.90;99.90;;;;;;5093202;28;19969;-74
2023/04/26 02:14:02;;;;;;;6.15;3.08;;;6.90;99.90;;;;;;5100489;28;20099;-80
2023/04/26 02:16:28;;;;;;;7.78;3.40;;;5.90;99.90;;;;;;5103431;28;20046;-79
2023/04/26 02:18:54;;;;;;;10.05;2.75;;;5.50;99.90;;;;;;5089484;28;20051;-79
2023/04/26 02:21:21;;;;;;;7.18;2.83;;;5.50;99.90;;;;;;5089641;28;20139;-77
2023/04/26 02:23:47;;;;;;;7.57;2.60;;;5.70;99.90;;;;;;5070378;28;20056;-73
2023/04/26 02:26:13;;;;;;;6.93;3.17;;;5.80;99.90;;;;;;5045230;28;20105;-79
2023/04/26 02:28:40;;;;;;;7.07;2.85;;;6.00;99.90;;;;;;5069828;28;20639;-75
2023/04/26 02:31:06;;;;;;;6.32;2.83;;;5.80;99.90;;;;;;5086057;28;20039;-75
2023/04/26 02:33:32;;;;;;;11.30;3.05;;;5.60;99.90;;;;;;5084795;28;20940;-73
2023/04/26 02:35:58;;;;;;;9.48;3.28;;;5.60;99.90;;;;;;5067960;28;20048;-75
2023/04/26 02:38:27;;;;;;;10.52;3.75;;;5.70;99.90;;;;;;5085536;28;20077;-74
2023/04/26 02:41:03;;;;;;;7.60;3.67;;;6.20;99.90;;;;;;5067483;28;20055;-80
2023/04/26 02:43:31;;;;;;;8.77;4.35;;;6.10;99.90;;;;;;5050089;28;20039;-77
2023/04/26 02:46:00;;;;;;;6.78;3.90;;;6.10;99.90;;;;;;5072269;28;20138;-73
2023/04/26 02:48:25;;;;;;;10.43;3.90;;;6.10;99.90;;;;;;5083610;28;20036;-78
2023/04/26 02:50:52;;;;;;;11.82;3.47;;;5.90;99.90;;;;;;5056345;28;20132;-78
2023/04/26 02:53:17;;;;;;;9.57;3.50;;;5.60;99.90;;;;;;5053373;28;20083;-76
2023/04/26 02:55:43;;;;;;;7.18;3.70;;;7.20;99.90;;;;;;5077013;28;20497;-79
2023/04/26 02:58:08;;;;;;;7.68;3.42;;;5.80;99.90;;;;;;5054570;28;20116;-75
2023/04/26 03:00:34;;;;;;;5.22;3.28;;;5.90;99.90;;;;;;5073264;28;20048;-75
2023/04/26 03:03:00;;;;;;;4.35;2.75;;;5.70;99.90;;;;;;5089178;28;20089;-75
2023/04/26 03:05:26;;;;;;;5.97;2.75;;;5.60;99.90;;;;;;5044782;28;20044;-72
2023/04/26 03:07:52;;;;;;;6.70;3.30;;;5.30;99.90;;;;;;5071559;28;20044;-75
2023/04/26 03:10:17;;;;;;;9.55;3.03;;;5.30;99.90;;;;;;5057121;28;20060;-75
2023/04/26 03:12:43;;;;;;;9.02;4.00;;;5.30;99.90;;;;;;5069560;28;20048;-78
2023/04/26 03:15:09;;;;;;;10.10;3.45;;;5.90;99.90;;;;;;5089570;28;20043;-79
2023/04/26 03:17:38;;;;;;;5.45;3.22;;;5.70;99.90;;;;;;5070575;28;20515;-75
2023/04/26 03:20:06;;;;;;;8.18;3.92;;;5.20;99.90;;;;;;5065008;28;20420;-78
2023/04/26 03:22:31;;;;;;;5.15;3.15;;;5.50;99.90;;;;;;5082639;28;20056;-74
2023/04/26 03:24:57;;;;;;;8.25;3.40;;;5.10;99.90;;;;;;5088821;28;20047;-73
2023/04/26 03:27:23;;;;;;;7.00;2.90;;;5.10;99.90;;;;;;5070393;28;20123;-75
2023/04/26 03:29:48;;;;;;;5.78;2.80;;;5.60;99.90;;;;;;5051444;28;20050;-77
2023/04/26 03:32:14;;;;;;;5.03;2.17;;;5.20;99.90;;;;;;5054922;28;20131;-79
2023/04/26 03:34:40;;;;;;;6.55;2.30;;;5.50;99.90;;;;;;5071983;28;20097;-79
2023/04/26 03:37:05;;;;;;;7.45;2.38;;;5.50;99.90;;;;;;5087344;28;20164;-76
2023/04/26 03:39:31;;;;;;;5.05;2.20;;;5.60;99.90;;;;;;5095547;28;20119;-75
2023/04/26 03:41:57;;;;;;;4.15;1.90;;;6.10;99.90;;;;;;5090756;28;20128;-73
2023/04/26 03:44:23;;;;;;;5.97;2.97;;;5.50;99.90;;;;;;5082029;28;20549;-75
2023/04/26 03:46:48;;;;;;;2.63;2.08;;;5.80;99.90;;;;;;5070111;28;20389;-76
2023/04/26 03:49:14;;;;;;;4.65;2.20;;;5.90;99.90;;;;;;5076849;28;20028;-75
2023/04/26 03:51:40;;;;;;;5.15;2.22;;;5.30;99.90;;;;;;5072885;28;20044;-75
2023/04/26 03:54:05;;;;;;;10.35;2.35;;;5.30;99.90;;;;;;5071510;28;20044;-75
2023/04/26 03:56:31;;;;;;;6.60;2.28;;;5.50;99.90;;;;;;5056608;28;20032;-77
2023/04/26 03:58:57;;;;;;;7.47;2.00;;;5.10;99.90;;;;;;5072396;28;20094;-77
2023/04/26 04:01:22;;;;;;;7.57;2.08;;;5.20;99.90;;;;;;5064781;28;20515;-74
2023/04/26 04:03:48;;;;;;;3.83;2.30;;;5.50;99.90;;;;;;5072261;28;20120;-72
2023/04/26 04:06:15;;;;;;;5.05;2.13;;;5.40;99.90;;;;;;5070753;28;20055;-74
2023/04/26 04:08:41;;;;;;;6.68;2.90;;;5.60;99.90;;;;;;5069531;28;20043;-75
2023/04/26 04:11:06;;;;;;;7.07;2.35;;;4.90;99.90;;;;;;5039516;28;20539;-75
2023/04/26 04:13:32;;;;;;;9.00;2.47;;;5.40;99.90;;;;;;5067028;28;20102;-76
2023/04/26 04:15:58;;;;;;;4.88;2.25;;;5.10;99.90;;;;;;5087100;28;20050;-74
2023/04/26 04:18:23;;;;;;;8.70;2.30;;;5.60;99.90;;;;;;5088045;28;20554;-75
2023/04/26 04:20:49;;;;;;;5.53;2.10;;;5.70;99.90;;;;;;5052262;28;20483;-73
2023/04/26 04:23:15;;;;;;;2.55;1.90;;;5.90;99.90;;;;;;5084864;28;20048;-77
2023/04/26 04:25:42;;;;;;;5.53;2.15;;;5.70;99.90;;;;;;5068013;28;20059;-76
2023/04/26 04:28:08;;;;;;;6.25;2.60;;;5.50;99.90;;;;;;5086296;28;20048;-74
2023/04/26 04:30:34;;;;;;;6.53;2.40;;;6.10;99.90;;;;;;5086115;28;20036;-76
2023/04/26 04:33:00;;;;;;;6.13;2.00;;;6.10;99.90;;;;;;5086362;28;20048;-78
2023/04/26 04:35:28;;;;;;;3.58;1.70;;;6.10;99.90;;;;;;5063743;28;20744;-76
2023/04/26 04:37:56;;;;;;;5.15;2.10;;;6.00;99.90;;;;;;5092766;28;20051;-74
2023/04/26 04:40:23;;;;;;;3.10;2.20;;;6.20;99.90;;;;;;5082976;28;20040;-74
2023/04/26 04:42:49;;;;;;;4.05;2.25;;;6.30;99.90;;;;;;5055009;28;20090;-77
2023/04/26 04:45:16;;;;;;;5.22;2.10;;;5.80;99.90;;;;;;5049734;28;20064;-78
2023/04/26 04:47:42;;;;;;;4.25;2.05;;;5.90;99.90;;;;;;5086766;28;20039;-75
2023/04/26 04:50:08;;;;;;;4.22;2.28;;;6.40;99.90;;;;;;5069158;28;20483;-78
2023/04/26 04:52:35;;;;;;;5.13;2.30;;;6.00;99.90;;;;;;5083288;28;20040;-74
2023/04/26 04:55:02;;;;;;;2.75;2.05;;;6.30;99.90;;;;;;5085617;28;20044;-74
2023/04/26 04:57:28;;;;;;;3.35;2.15;;;6.10;99.90;;;;;;5064285;28;20044;-73
2023/04/26 04:59:54;;;;;;;4.65;1.90;;;6.50;99.90;;;;;;5068303;28;20045;-75
2023/04/26 05:02:20;;;;;;;5.45;2.60;;;6.70;99.90;;;;;;5064218;28;20036;-73
2023/04/26 05:04:46;;;;;;;3.85;1.85;;;6.70;99.90;;;;;;5087018;28;20396;-76
2023/04/26 05:07:14;;;;;;;6.22;2.55;;;6.50;99.90;;;;;;5067624;28;20396;-76
2023/04/26 05:09:43;;;;;;;4.65;1.98;;;6.90;99.90;;;;;;5050950;28;20047;-77
2023/04/26 05:12:09;;;;;;;8.98;2.10;;;6.90;99.90;;;;;;5087080;28;20036;-76
2023/04/26 05:14:34;;;;;;;5.85;2.42;;;6.50;99.90;;;;;;5070776;28;20384;-73
2023/04/26 05:17:00;;;;;;;5.68;2.58;;;6.90;99.90;;;;;;5083546;28;20545;-74
2023/04/26 05:19:26;;;;;;;6.82;2.40;;;6.80;99.90;;;;;;5071014;28;20082;-76
2023/04/26 05:21:52;;;;;;;5.22;2.30;;;7.10;99.90;;;;;;5051123;28;20082;-75
2023/04/26 05:24:17;;;;;;;3.70;1.98;;;6.80;99.90;;;;;;5107962;28;20415;-78
2023/04/26 05:26:43;;;;;;;7.13;2.28;;;6.60;99.90;;;;;;5104362;28;20043;-73
2023/04/26 05:29:09;;;;;;;9.38;2.50;;;7.20;99.90;;;;;;5073810;28;20100;-77
2023/04/26 05:31:34;;;;;;;5.65;2.53;;;7.20;99.90;;;;;;5085658;28;20383;-75
2023/04/26 05:34:00;;;;;;;5.88;2.38;;;7.20;99.90;;;;;;5089819;28;20451;-80
2023/04/26 05:36:27;;;;;;;4.78;2.45;;;7.10;99.90;;;;;;5071884;28;20708;-75
2023/04/26 05:38:52;;;;;;;4.10;2.28;;;6.80;99.90;;;;;;5090344;28;20048;-79
2023/04/26 05:41:18;;;;;;;7.82;2.42;;;7.20;99.90;;;;;;5089906;28;20043;-75
2023/04/26 05:43:45;;;;;;;6.82;2.53;;;7.10;99.90;;;;;;5073458;28;20408;-79
2023/04/26 05:46:10;;;;;;;8.05;2.47;;;7.10;99.90;;;;;;5091057;28;20082;-75
2023/04/26 05:48:36;;;;;;;6.45;2.60;;;7.00;99.90;;;;;;5088465;28;20074;-78
2023/04/26 05:51:02;;;;;;;7.72;2.80;;;6.60;99.90;;;;;;5091212;28;20047;-78
2023/04/26 05:53:27;;;;;;;6.68;3.30;;;6.60;99.90;;;;;;5055627;28;20044;-76
2023/04/26 05:55:53;;;;;;;9.10;4.07;;;7.00;99.90;;;;;;5087852;28;20040;-77
2023/04/26 05:58:19;;;;;;;7.65;3.22;;;7.00;99.90;;;;;;5081617;28;20032;-77
2023/04/26 06:00:45;;;;;;;5.55;3.03;;;6.90;99.90;;;;;;5090928;28;20073;-75
2023/04/26 06:03:11;;;;;;;4.03;2.25;;;7.00;99.90;;;;;;5091255;28;20571;-74
2023/04/26 06:05:37;;;;;;;5.53;3.05;;;7.70;99.90;;;;;;5073762;28;20047;-74
2023/04/26 06:08:03;;;;;;;5.45;3.08;;;7.40;99.90;;;;;;5088052;28;20674;-78
2023/04/26 06:10:29;;;;;;;7.20;2.40;;;7.90;99.90;;;;;;5088336;28;20040;-75
2023/04/26 06:12:54;;;;;;;6.82;2.47;;;7.70;99.90;;;;;;5088379;28;20051;-76
2023/04/26 06:15:20;;;;;;;5.70;2.38;;;7.60;99.90;;;;;;5083540;28;20043;-77
2023/04/26 06:17:46;;;;;;;4.28;2.22;;;7.50;99.90;;;;;;5091832;28;20035;-74
2023/04/26 06:20:12;;;;;;;6.60;2.30;;;7.50;99.90;;;;;;5081425;28;20426;-78
2023/04/26 06:22:38;;;;;;;3.80;2.20;;;7.90;99.90;;;;;;5080728;28;20093;-77
2023/04/26 06:25:04;;;;;;;4.80;2.08;;;7.60;99.90;;;;;;5102244;28;20060;-76
2023/04/26 06:27:30;;;;;;;7.20;2.60;;;7.60;99.90;;;;;;5081363;28;20032;-77
2023/04/26 06:29:56;;;;;;;6.30;2.20;;;7.90;99.90;;;;;;5110613;27;20054;-74
2023/04/26 06:32:22;;;;;;;5.97;2.30;;;7.60;99.90;;;;;;5124443;27;20059;-76
2023/04/26 06:34:47;;;;;;;4.68;2.28;;;7.50;99.90;;;;;;5078180;27;20058;-75
2023/04/26 06:37:13;;;;;;;3.78;2.28;;;7.90;99.90;;;;;;5091544;28;20046;-78
2023/04/26 06:39:39;;;;;;;6.95;2.35;;;7.80;99.90;;;;;;5092929;28;20157;-77
2023/04/26 06:42:05;;;;;;;8.35;2.45;;;8.10;99.90;;;;;;5119571;27;20036;-78
2023/04/26 06:44:31;;;;;;;4.70;2.47;;;8.50;99.90;;;;;;5092890;28;20044;-74
2023/04/26 06:46:56;;;;;;;6.25;2.22;;;8.90;99.90;;;;;;5073630;28;20539;-76
2023/04/26 06:49:23;;;;;;;6.60;2.03;;;8.70;99.90;;;;;;5124186;27;20047;-75
2023/04/26 06:51:48;;;;;;;5.25;2.13;;;9.20;99.90;;;;;;5106164;28;20032;-75
2023/04/26 06:54:14;;;;;;;5.10;2.15;;;9.30;99.90;;;;;;5091325;28;20028;-75
2023/04/26 06:56:40;;;;;;;6.15;2.35;;;9.60;99.90;;;;;;5090761;28;20093;-77
2023/04/26 06:59:09;;;;;;;5.15;1.90;;;9.50;99.90;;;;;;5098094;28;20051;-76
2023/04/26 07:01:34;;;;;;;6.50;2.33;;;9.90;99.90;;;;;;5126648;27;20046;-78
2023/04/26 07:04:02;;;;;;;6.13;2.20;;;10.00;99.90;;;;;;5076690;28;20051;-76
2023/04/26 07:06:28;;;;;;;5.55;1.95;;;9.60;99.90;;;;;;5103183;27;20384;-77
2023/04/26 07:08:54;;;;;;;4.50;1.90;;;9.60;99.90;;;;;;5080048;28;20647;-76
2023/04/26 07:11:20;;;;;;;4.25;1.95;;;9.60;99.90;;;;;;5076586;28;20047;-76
2023/04/26 07:13:46;;;;;;;7.93;2.20;;;9.60;99.90;;;;;;5092569;27;20035;-78
2023/04/26 07:16:12;;;;;;;4.82;2.30;;;9.60;99.90;;;;;;5094057;28;20043;-77
2023/04/26 07:18:39;;;;;;;6.18;2.33;;;9.90;99.90;;;;;;5082924;28;20048;-79
2023/04/26 07:21:05;;;;;;;7.57;2.15;;;9.90;99.90;;;;;;5108966;28;20126;-79
2023/04/26 07:23:31;;;;;;;4.63;1.80;;;10.40;99.90;;;;;;5075644;28;20446;-77
2023/04/26 07:25:57;;;;;;;5.43;2.33;;;10.40;99.90;;;;;;5075199;28;20086;-81
2023/04/26 07:28:23;;;;;;;5.78;2.30;;;10.40;99.90;;;;;;5091238;28;20122;-76
2023/04/26 07:30:49;;;;;;;8.27;1.98;;;10.20;99.90;;;;;;5090305;28;20118;-77
2023/04/26 07:33:15;;;;;;;3.90;1.70;;;10.50;99.90;;;;;;5108595;28;20039;-80
2023/04/26 07:35:42;;;;;;;3.80;1.95;;;10.40;99.90;;;;;;5086311;27;20142;-77
2023/04/26 07:38:08;;;;;;;4.93;2.25;;;10.50;99.90;;;;;;5091938;28;20082;-78
2023/04/26 07:40:35;;;;;;;4.13;2.00;;;10.70;99.90;;;;;;5095884;27;20079;-75
2023/04/26 07:43:01;;;;;;;3.70;1.85;;;10.70;99.90;;;;;;5088407;27;20044;-78
2023/04/26 07:45:26;;;;;;;3.63;1.90;;;11.00;99.90;;;;;;5075743;28;20097;-77
2023/04/26 07:47:53;;;;;;;5.68;2.20;;;11.10;99.90;;;;;;5056106;28;20115;-79
2023/04/26 07:50:19;;;;;;;5.50;1.90;;;11.30;99.90;;;;;;5122386;27;20460;-80
2023/04/26 07:52:45;;;;;;;4.05;2.10;;;10.80;99.90;;;;;;5088975;28;20086;-76
2023/04/26 07:55:10;;;;;;;7.22;2.13;;;11.00;99.90;;;;;;5076343;28;20437;-76
2023/04/26 07:57:36;;;;;;;5.53;2.30;;;11.30;99.90;;;;;;5088599;28;20051;-78
2023/04/26 08:00:08;;;;;;;4.40;2.53;;;10.90;99.90;;;;;;5104557;27;20081;-77
2023/04/26 08:02:34;;;;;;;6.53;2.20;;;11.20;99.90;;;;;;5075271;28;20047;-81
2023/04/26 08:05:00;;;;;;;5.13;2.13;;;11.40;99.90;;;;;;5087855;28;20040;-78
2023/04/26 08:07:26;;;;;;;5.68;2.05;;;11.20;99.90;;;;;;5113010;27;20411;-80
2023/04/26 08:09:52;;;;;;;3.85;2.17;;;11.20;99.90;;;;;;5090718;28;20122;-79
2023/04/26 08:12:18;;;;;;;3.70;2.03;;;10.90;99.90;;;;;;5083450;28;20051;-75
2023/04/26 08:14:44;;;;;;;4.97;2.40;;;10.80;99.90;;;;;;5102247;28;20050;-77
2023/04/26 08:17:10;;;;;;;4.97;2.95;;;10.40;99.90;;;;;;5091527;28;20552;-79
2023/04/26 08:19:36;;;;;;;7.88;2.20;;;10.60;99.90;;;;;;5083969;28;20384;-74
2023/04/26 08:22:01;;;;;;;7.85;2.33;;;11.30;99.90;;;;;;5066965;28;20084;-84
2023/04/26 08:24:27;;;;;;;3.13;1.80;;;11.40;99.90;;;;;;5109765;28;20384;-80
2023/04/26 08:27:08;;;;;;;4.57;1.83;;;11.10;99.90;;;;;;5081661;28;20035;-77
2023/04/26 08:29:33;;;;;;;3.83;1.60;;;10.70;99.90;;;;;;5071131;28;20040;-76
2023/04/26 08:31:59;;;;;;;4.32;1.77;;;10.50;99.90;;;;;;5085746;28;20043;-76
2023/04/26 08:34:27;;;;;;;7.95;1.83;;;10.30;99.90;;;;;;5089983;28;20107;-75
2023/04/26 08:36:52;;;;;;;4.47;2.17;;;10.30;99.90;;;;;;5085557;27;20043;-80
2023/04/26 08:39:18;;;;;;;5.97;2.15;;;10.40;99.90;;;;;;5068551;28;20751;-77
2023/04/26 08:41:51;;;;;;;3.15;1.90;;;10.40;99.90;;;;;;5097478;27;20046;-75
2023/04/26 08:44:23;;;;;;;4.30;1.92;;;10.50;99.90;;;;;;5062546;28;20031;-80
2023/04/26 08:47:07;;;;;;;6.70;2.13;;;11.00;99.90;;;;;;5084286;28;20418;-77
2023/04/26 08:49:41;;;;;;;4.40;1.83;;;10.80;99.90;;;;;;5085024;27;20042;-77
2023/04/26 08:52:12;;;;;;;7.23;1.73;;;10.20;99.90;;;;;;5085377;28;20051;-77
2023/04/26 08:54:39;;;;;;;8.50;2.13;;;9.90;99.90;;;;;;5072822;28;20301;-78
2023/04/26 08:57:06;;;;;;;3.63;1.60;;;9.60;99.90;;;;;;5120503;27;20071;-79
2023/04/26 08:59:36;;;;;;;6.97;1.92;;;8.70;99.90;;;;;;5084524;28;20085;-82
2023/04/26 09:02:08;;;;;;;2.97;1.50;;;9.40;99.90;;;;;;5081854;28;20047;-76
2023/04/26 09:04:34;;;;;;;4.25;1.70;;;9.20;99.90;;;;;;5073552;28;20031;-79
2023/04/26 09:07:02;;;;;;;6.93;1.88;;;9.20;99.90;;;;;;5073242;28;20123;-77
2023/04/26 09:09:37;;;;;;;6.53;1.70;;;9.20;99.90;;;;;;5070455;27;20040;-76
2023/04/26 09:12:07;;;;;;;3.88;1.40;;;9.20;99.90;;;;;;5085795;28;20129;-78
2023/04/26 09:14:32;;;;;;;6.03;1.73;;;9.20;99.90;;;;;;5050765;28;20602;-78
2023/04/26 09:16:58;;;;;;;4.78;1.50;;;9.00;99.90;;;;;;5083633;28;20027;-74
2023/04/26 09:19:43;;;;;;;6.45;1.60;;;9.00;99.90;;;;;;5071120;28;20036;-80
2023/04/26 09:22:09;;;;;;;5.15;1.60;;;9.30;99.90;;;;;;5099113;28;20484;-75
2023/04/26 09:24:49;;;;;;;8.00;1.83;;;9.50;99.90;;;;;;5089994;28;20045;-81
2023/04/26 09:27:17;;;;;;;3.63;1.55;;;9.70;99.90;;;;;;5082648;28;20515;-76
2023/04/26 09:30:17;;;;;;;4.63;1.77;;;10.00;99.90;;;;;;5087730;28;20075;-78
2023/04/26 09:32:48;;;;;;;3.97;1.73;;;10.10;99.90;;;;;;5081016;28;20118;-76
2023/04/26 09:35:45;;;;;;;6.43;2.17;;;10.20;99.90;;;;;;5088321;28;20088;-77
2023/04/26 09:38:16;;;;;;;4.78;1.58;;;10.10;99.90;;;;;;5064439;28;20411;-80
2023/04/26 09:40:47;;;;;;;4.43;1.42;;;10.20;99.90;;;;;;5071356;28;20040;-78
2023/04/26 09:43:21;;;;;;;5.97;1.52;;;10.20;99.90;;;;;;5090037;28;20043;-77
2023/04/26 09:45:57;;;;;;;7.13;2.08;;;10.00;99.90;;;;;;5105042;28;20040;-77
2023/04/26 09:48:25;;;;;;;5.30;2.03;;;10.30;99.90;;;;;;5088739;28;20032;-76
2023/04/26 09:50:56;;;;;;;3.50;2.13;;;10.50;99.90;;;;;;5071680;28;20046;-77
2023/04/26 09:53:28;;;;;;;9.18;2.30;;;10.70;99.90;;;;;;5076230;28;20122;-75
2023/04/26 09:55:55;;;;;;;4.90;2.17;;;10.60;99.90;;;;;;5094209;28;20047;-74
2023/04/26 09:58:22;;;;;;;8.90;2.35;;;10.60;99.90;;;;;;5125673;27;20683;-73
2023/04/26 10:00:50;;;;;;;9.57;2.65;;;10.70;99.90;;;;;;5092492;28;20040;-75
2023/04/26 10:03:21;;;;;;;4.97;2.00;;;10.70;99.90;;;;;;5078432;28;20078;-79
2023/04/26 10:05:47;;;;;;;3.92;2.10;;;11.00;99.90;;;;;;5091750;27;20067;-76
2023/04/26 10:08:14;;;;;;;4.85;2.03;;;11.10;99.90;;;;;;5072934;28;20071;-78
2023/04/26 10:10:41;;;;;;;7.38;2.20;;;11.30;99.90;;;;;;5088303;28;20039;-78
2023/04/26 10:13:07;;;;;;;6.13;2.08;;;11.50;99.90;;;;;;5106788;28;20132;-78
2023/04/26 10:15:34;;;;;;;6.45;2.33;;;11.60;99.90;;;;;;5092697;28;20158;-77
2023/04/26 10:18:00;;;;;;;4.75;2.25;;;11.80;99.90;;;;;;5121354;27;20499;-78
2023/04/26 10:20:28;;;;;;;3.88;1.50;;;12.40;99.90;;;;;;5099170;27;20083;-77
2023/04/26 10:23:00;;;;;;;3.20;1.38;;;12.50;99.90;;;;;;5088034;28;20051;-76
2023/04/26 10:25:37;;;;;;;5.35;1.48;;;12.10;99.90;;;;;;5086518;28;20119;-79
2023/04/26 10:28:06;;;;;;;2.05;1.13;;;11.70;99.90;;;;;;5114702;27;20157;-74
2023/04/26 10:30:32;;;;;;;5.65;1.38;;;11.50;99.90;;;;;;5075574;28;20039;-76
2023/04/26 10:32:58;;;;;;;3.95;1.33;;;11.20;99.90;;;;;;5093444;27;20028;-76
2023/04/26 10:35:25;;;;;;;3.55;1.30;;;11.10;99.90;;;;;;5092009;27;20040;-76
2023/04/26 10:38:02;;;;;;;2.72;1.20;;;11.10;99.90;;;;;;5093301;28;20043;-79
2023/04/26 10:40:39;;;;;;;9.68;1.90;;;11.20;99.90;;;;;;5072980;28;20040;-79
2023/04/26 10:43:07;;;;;;;4.72;1.40;;;11.80;99.90;;;;;;5088881;28;20048;-75
2023/04/26 10:45:33;;;;;;;3.83;1.20;;;11.50;99.90;;;;;;5067879;28;20031;-76
2023/04/26 10:48:20;;;;;;;3.63;1.10;;;11.70;99.90;;;;;;5087792;27;20088;-76
2023/04/26 10:51:07;;;;;;;6.22;1.40;;;11.30;99.90;;;;;;5121289;27;20047;-76
2023/04/26 10:53:45;;;;;;;3.78;1.10;;;11.20;99.90;;;;;;5072244;28;20158;-76
2023/04/26 10:56:31;;;;;;;2.83;1.10;;;10.90;99.90;;;;;;5086961;28;20043;-79
2023/04/26 10:59:13;;;;;;;2.88;1.10;;;10.80;99.90;;;;;;5075597;28;20088;-76
2023/04/26 11:01:39;;;;;;;4.38;1.52;;;10.50;99.90;;;;;;5086090;28;20067;-77
2023/04/26 11:04:09;;;;;;;5.82;1.88;;;10.20;99.90;;;;;;5084052;28;20050;-78
2023/04/26 11:06:49;;;;;;;6.65;2.05;;;9.90;99.90;;;;;;5052013;28;20085;-74
2023/04/26 11:09:51;;;;;;;4.22;1.65;;;9.70;99.90;;;;;;5121880;27;20089;-77
2023/04/26 11:12:17;;;;;;;3.63;1.35;;;11.40;99.90;;;;;;5095447;27;20039;-77
2023/04/26 11:14:44;;;;;;;3.17;1.20;;;9.20;99.90;;;;;;5085225;27;20055;-75
2023/04/26 11:17:11;;;;;;;4.82;1.77;;;9.20;99.90;;;;;;5088803;28;20043;-78
2023/04/26 11:19:37;;;;;;;3.47;2.25;;;9.00;99.90;;;;;;5068655;27;20118;-74
2023/04/26 11:22:06;;;;;;;3.30;1.48;;;9.00;99.90;;;;;;5072732;27;20126;-75
2023/04/26 11:24:35;;;;;;;4.68;1.25;;;9.20;99.90;;;;;;5063418;27;20070;-76
2023/04/26 11:27:08;;;;;;;3.85;1.58;;;9.40;99.90;;;;;;5099258;27;20046;-74
2023/04/26 11:29:33;;;;;;;3.50;1.50;;;9.60;99.90;;;;;;5120321;27;20483;-75
2023/04/26 11:31:59;;;;;;;4.00;1.50;;;9.70;99.90;;;;;;5070034;27;20035;-79
2023/04/26 11:34:35;;;;;;;2.67;1.77;;;9.90;99.90;;;;;;5070965;27;20575;-78
2023/04/26 11:37:03;;;;;;;2.63;1.23;;;10.10;99.90;;;;;;5087601;27;20122;-78
2023/04/26 11:39:31;;;;;;;3.30;1.45;;;10.30;99.90;;;;;;5126120;27;20040;-76
2023/04/26 11:42:07;;;;;;;2.30;1.30;;;10.40;99.90;;;;;;5074777;28;20031;-78
2023/04/26 11:44:33;;;;;;;2.20;1.50;;;10.60;99.90;;;;;;5095607;28;20040;-77
2023/04/26 11:47:04;;;;;;;5.68;1.48;;;10.70;99.90;;;;;;5090496;28;20035;-76
2023/04/26 11:49:35;;;;;;;3.42;1.23;;;10.50;99.90;;;;;;5109465;28;20046;-79
2023/04/26 11:52:02;;;;;;;3.70;1.55;;;11.00;99.90;;;;;;5092626;28;20055;-77
2023/04/26 11:54:30;;;;;;;2.90;1.20;;;11.10;99.90;;;;;;5073774;28;20034;-74
2023/04/26 11:56:57;;;;;;;3.67;1.30;;;11.10;99.90;;;;;;5072302;28;20035;-79
2023/04/26 11:59:23;;;;;;;2.42;1.42;;;10.90;99.90;;;;;;5108089;28;20028;-79
2023/04/26 12:01:51;;;;;;;3.83;1.45;;;10.60;99.90;;;;;;5074885;28;20792;-77
2023/04/26 12:04:17;;;;;;;4.32;1.58;;;10.60;99.90;;;;;;5103002;28;20051;-76
2023/04/26 12:06:45;;;;;;;3.45;1.40;;;10.60;99.90;;;;;;5070801;28;20035;-78
2023/04/26 12:09:11;;;;;;;3.67;1.50;;;10.40;99.90;;;;;;5083860;28;20042;-73
2023/04/26 12:11:38;;;;;;;4.63;1.40;;;10.20;99.90;;;;;;5058042;28;20144;-77
2023/04/26 12:14:04;;;;;;;2.97;1.60;;;10.30;99.90;;;;;;5101358;28;20044;-76
2023/04/26 12:16:30;;;;;;;2.90;1.70;;;10.30;99.90;;;;;;5091162;28;20130;-77
2023/04/26 12:18:56;;;;;;;4.93;1.63;;;10.30;99.90;;;;;;5088059;28;20096;-78
2023/04/26 12:21:23;;;;;;;4.03;1.30;;;10.30;99.90;;;;;;5090305;28;20039;-77
2023/04/26 12:23:52;;;;;;;3.22;1.27;;;10.10;99.90;;;;;;5072701;28;20094;-73
2023/04/26 12:26:19;;;;;;;3.60;1.40;;;10.10;99.90;;;;;;5068504;28;20147;-78
2023/04/26 12:28:45;;;;;;;2.85;1.40;;;10.20;99.90;;;;;;5055755;28;20044;-80
2023/04/26 12:31:12;;;;;;;4.68;1.48;;;10.00;99.90;;;;;;5089963;28;20054;-75
2023/04/26 12:33:37;;;;;;;4.50;1.55;;;10.10;99.90;;;;;;5087727;28;20104;-79
2023/04/26 12:36:10;;;;;;;4.63;1.75;;;10.10;99.90;;;;;;5080391;28;20047;-78
2023/04/26 12:38:37;;;;;;;2.72;1.50;;;10.10;99.90;;;;;;5091714;28;20036;-77
2023/04/26 12:41:03;;;;;;;9.07;2.05;;;10.30;99.90;;;;;;5073737;28;20609;-78
2023/04/26 12:43:29;;;;;;;3.88;1.33;;;10.60;99.90;;;;;;5094363;28;20120;-74
2023/04/26 12:45:55;;;;;;;2.40;1.65;;;10.60;99.90;;;;;;5090736;28;20118;-75
2023/04/26 12:48:20;;;;;;;3.20;1.50;;;11.00;99.90;;;;;;5102901;28;20037;-74
2023/04/26 12:50:46;;;;;;;4.18;1.75;;;11.30;99.90;;;;;;5088369;28;20035;-75
2023/04/26 12:53:12;;;;;;;6.97;1.77;;;11.50;99.90;;;;;;5090150;28;20038;-77
2023/04/26 12:55:39;;;;;;;5.00;1.80;;;11.70;99.90;;;;;;5088495;28;20047;-77